sensor_id;sensor_type;location;lat;lon;timestamp;P1;durP1;ratioP1;P2;durP2;ratioP2
4508;SDS011;2267;48.816;9.230;2023-08-17T00:02:15;5.53;;;5.03;;
4508;SDS011;2267;48.816;9.230;2023-08-17T00:04:42;6.23;;;5.63;;
4508;SDS011;2267;48.816;9.230;2023-08-17T00:07:08;8.80;;;6.57;;
4508;SDS011;2267;48.816;9.230;2023-08-17T00:09:35;6.00;;;4.90;;
4508;SDS011;2267;48.816;9.230;2023-08-17T00:12:02;6.70;;;6.10;;
4508;SDS011;2267;48.816;9.230;2023-08-17T00:14:31;6.40;;;5.80;;
4508;SDS011;2267;48.816;9.230;2023-08-17T00:16:57;6.97;;;6.37;;
4508;SDS011;2267;48.816;9.230;2023-08-17T00:19:24;7.70;;;5.93;;
4508;SDS011;2267;48.816;9.230;2023-08-17T00:21:51;7.07;;;6.20;;
4508;SDS011;2267;48.816;9.230;2023-08-17T00:24:19;7.77;;;6.93;;
4508;SDS011;2267;48.816;9.230;2023-08-17T00:26:45;10.93;;;7.97;;
4508;SDS011;2267;48.816;9.230;2023-08-17T00:29:12;6.40;;;5.80;;
4508;SDS011;2267;48.816;9.230;2023-08-17T00:31:41;9.60;;;6.90;;
4508;SDS011;2267;48.816;9.230;2023-08-17T00:34:08;7.60;;;6.90;;
4508;SDS011;2267;48.816;9.230;2023-08-17T00:36:35;7.97;;;7.27;;
4508;SDS011;2267;48.816;9.230;2023-08-17T00:39:02;7.90;;;7.10;;
4508;SDS011;2267;48.816;9.230;2023-08-17T00:41:29;7.83;;;7.13;;
4508;SDS011;2267;48.816;9.230;2023-08-17T00:43:56;7.50;;;6.90;;
4508;SDS011;2267;48.816;9.230;2023-08-17T00:46:23;8.27;;;7.60;;
4508;SDS011;2267;48.816;9.230;2023-08-17T00:48:51;8.80;;;8.07;;
4508;SDS011;2267;48.816;9.230;2023-08-17T00:51:18;8.30;;;7.60;;
4508;SDS011;2267;48.816;9.230;2023-08-17T00:53:46;8.23;;;7.43;;
4508;SDS011;2267;48.816;9.230;2023-08-17T00:56:13;8.97;;;7.40;;
4508;SDS011;2267;48.816;9.230;2023-08-17T00:58:41;7.53;;;6.93;;
4508;SDS011;2267;48.816;9.230;2023-08-17T01:01:09;9.40;;;8.07;;
4508;SDS011;2267;48.816;9.230;2023-08-17T01:03:36;8.97;;;8.20;;
4508;SDS011;2267;48.816;9.230;2023-08-17T01:06:07;8.00;;;7.00;;
4508;SDS011;2267;48.816;9.230;2023-08-17T01:08:34;8.87;;;8.00;;
4508;SDS011;2267;48.816;9.230;2023-08-17T01:14:00;8.50;;;7.70;;
4508;SDS011;2267;48.816;9.230;2023-08-17T01:19:32;7.80;;;7.20;;
4508;SDS011;2267;48.816;9.230;2023-08-17T01:22:03;9.07;;;8.27;;
4508;SDS011;2267;48.816;9.230;2023-08-17T01:24:31;9.40;;;8.50;;
4508;SDS011;2267;48.816;9.230;2023-08-17T01:26:58;7.97;;;7.17;;
4508;SDS011;2267;48.816;9.230;2023-08-17T01:29:25;7.50;;;6.90;;
4508;SDS011;2267;48.816;9.230;2023-08-17T01:31:53;8.27;;;7.47;;
4508;SDS011;2267;48.816;9.230;2023-08-17T01:34:47;8.30;;;7.50;;
4508;SDS011;2267;48.816;9.230;2023-08-17T01:37:20;8.40;;;7.60;;
4508;SDS011;2267;48.816;9.230;2023-08-17T01:39:52;7.67;;;6.87;;
4508;SDS011;2267;48.816;9.230;2023-08-17T01:42:23;7.33;;;6.63;;
4508;SDS011;2267;48.816;9.230;2023-08-17T01:44:50;8.37;;;7.40;;
4508;SDS011;2267;48.816;9.230;2023-08-17T01:47:21;9.47;;;8.20;;
4508;SDS011;2267;48.816;9.230;2023-08-17T01:49:49;9.30;;;8.40;;
4508;SDS011;2267;48.816;9.230;2023-08-17T01:52:16;8.53;;;7.73;;
4508;SDS011;2267;48.816;9.230;2023-08-17T01:54:43;10.10;;;8.43;;
4508;SDS011;2267;48.816;9.230;2023-08-17T01:57:10;8.47;;;7.67;;
4508;SDS011;2267;48.816;9.230;2023-08-17T01:59:36;8.80;;;7.97;;
4508;SDS011;2267;48.816;9.230;2023-08-17T02:02:03;8.27;;;6.90;;
4508;SDS011;2267;48.816;9.230;2023-08-17T02:04:30;9.13;;;8.33;;
4508;SDS011;2267;48.816;9.230;2023-08-17T02:06:57;8.83;;;8.10;;
4508;SDS011;2267;48.816;9.230;2023-08-17T02:09:24;13.43;;;9.20;;
4508;SDS011;2267;48.816;9.230;2023-08-17T02:11:51;9.47;;;8.67;;
4508;SDS011;2267;48.816;9.230;2023-08-17T02:14:18;8.60;;;7.80;;
4508;SDS011;2267;48.816;9.230;2023-08-17T02:16:45;9.20;;;8.20;;
4508;SDS011;2267;48.816;9.230;2023-08-17T02:19:12;8.80;;;8.10;;
4508;SDS011;2267;48.816;9.230;2023-08-17T02:21:39;8.80;;;8.00;;
4508;SDS011;2267;48.816;9.230;2023-08-17T02:24:05;8.63;;;7.90;;
4508;SDS011;2267;48.816;9.230;2023-08-17T02:26:32;8.93;;;8.10;;
4508;SDS011;2267;48.816;9.230;2023-08-17T02:28:59;8.90;;;8.00;;
4508;SDS011;2267;48.816;9.230;2023-08-17T02:31:26;9.07;;;7.87;;
4508;SDS011;2267;48.816;9.230;2023-08-17T02:33:53;9.43;;;8.43;;
4508;SDS011;2267;48.816;9.230;2023-08-17T02:36:24;10.37;;;9.40;;
4508;SDS011;2267;48.816;9.230;2023-08-17T02:38:51;9.30;;;8.50;;
4508;SDS011;2267;48.816;9.230;2023-08-17T02:41:17;9.20;;;8.40;;
4508;SDS011;2267;48.816;9.230;2023-08-17T02:43:44;9.00;;;8.20;;
4508;SDS011;2267;48.816;9.230;2023-08-17T02:46:11;9.03;;;8.23;;
4508;SDS011;2267;48.816;9.230;2023-08-17T02:48:38;9.93;;;8.23;;
4508;SDS011;2267;48.816;9.230;2023-08-17T02:51:04;8.47;;;7.57;;
4508;SDS011;2267;48.816;9.230;2023-08-17T02:53:31;7.27;;;6.53;;
4508;SDS011;2267;48.816;9.230;2023-08-17T02:55:58;8.07;;;7.37;;
4508;SDS011;2267;48.816;9.230;2023-08-17T02:58:25;8.60;;;7.50;;
4508;SDS011;2267;48.816;9.230;2023-08-17T03:00:52;7.73;;;6.93;;
4508;SDS011;2267;48.816;9.230;2023-08-17T03:03:19;8.53;;;7.63;;
4508;SDS011;2267;48.816;9.230;2023-08-17T03:05:46;9.70;;;7.30;;
4508;SDS011;2267;48.816;9.230;2023-08-17T03:08:13;7.50;;;6.80;;
4508;SDS011;2267;48.816;9.230;2023-08-17T03:10:40;8.30;;;7.47;;
4508;SDS011;2267;48.816;9.230;2023-08-17T03:13:07;11.13;;;8.10;;
4508;SDS011;2267;48.816;9.230;2023-08-17T03:15:33;8.27;;;7.47;;
4508;SDS011;2267;48.816;9.230;2023-08-17T03:18:00;7.60;;;6.90;;
4508;SDS011;2267;48.816;9.230;2023-08-17T03:20:27;8.73;;;7.70;;
4508;SDS011;2267;48.816;9.230;2023-08-17T03:22:54;9.40;;;8.37;;
4508;SDS011;2267;48.816;9.230;2023-08-17T03:25:21;9.57;;;8.27;;
4508;SDS011;2267;48.816;9.230;2023-08-17T03:27:47;9.53;;;8.23;;
4508;SDS011;2267;48.816;9.230;2023-08-17T03:30:14;9.43;;;8.57;;
4508;SDS011;2267;48.816;9.230;2023-08-17T03:32:41;9.67;;;8.77;;
4508;SDS011;2267;48.816;9.230;2023-08-17T03:35:08;9.20;;;8.40;;
4508;SDS011;2267;48.816;9.230;2023-08-17T03:37:35;8.27;;;7.47;;
4508;SDS011;2267;48.816;9.230;2023-08-17T03:40:03;8.00;;;7.30;;
4508;SDS011;2267;48.816;9.230;2023-08-17T03:42:31;8.60;;;7.80;;
4508;SDS011;2267;48.816;9.230;2023-08-17T03:44:57;9.17;;;8.37;;
4508;SDS011;2267;48.816;9.230;2023-08-17T03:47:24;9.57;;;8.67;;
4508;SDS011;2267;48.816;9.230;2023-08-17T03:49:52;9.57;;;8.77;;
4508;SDS011;2267;48.816;9.230;2023-08-17T03:52:18;9.70;;;8.80;;
4508;SDS011;2267;48.816;9.230;2023-08-17T03:54:45;9.30;;;8.50;;
4508;SDS011;2267;48.816;9.230;2023-08-17T03:57:12;9.40;;;8.50;;
4508;SDS011;2267;48.816;9.230;2023-08-17T03:59:39;11.13;;;9.40;;
4508;SDS011;2267;48.816;9.230;2023-08-17T04:02:07;10.80;;;9.70;;
4508;SDS011;2267;48.816;9.230;2023-08-17T04:04:34;11.40;;;9.73;;
4508;SDS011;2267;48.816;9.230;2023-08-17T04:07:00;10.13;;;9.23;;
4508;SDS011;2267;48.816;9.230;2023-08-17T04:09:27;13.00;;;9.70;;
4508;SDS011;2267;48.816;9.230;2023-08-17T04:11:54;10.83;;;9.73;;
4508;SDS011;2267;48.816;9.230;2023-08-17T04:14:23;11.03;;;9.90;;
4508;SDS011;2267;48.816;9.230;2023-08-17T04:16:50;11.20;;;9.93;;
4508;SDS011;2267;48.816;9.230;2023-08-17T04:19:17;11.70;;;10.10;;
4508;SDS011;2267;48.816;9.230;2023-08-17T04:21:43;11.17;;;10.03;;
4508;SDS011;2267;48.816;9.230;2023-08-17T04:24:10;12.67;;;9.83;;
4508;SDS011;2267;48.816;9.230;2023-08-17T04:26:37;11.10;;;9.77;;
4508;SDS011;2267;48.816;9.230;2023-08-17T04:29:04;11.57;;;9.40;;
4508;SDS011;2267;48.816;9.230;2023-08-17T04:31:32;10.60;;;9.70;;
4508;SDS011;2267;48.816;9.230;2023-08-17T04:33:59;12.23;;;8.73;;
4508;SDS011;2267;48.816;9.230;2023-08-17T04:36:26;11.27;;;10.07;;
4508;SDS011;2267;48.816;9.230;2023-08-17T04:38:52;10.63;;;9.73;;
4508;SDS011;2267;48.816;9.230;2023-08-17T04:41:19;10.83;;;9.80;;
4508;SDS011;2267;48.816;9.230;2023-08-17T04:43:46;9.40;;;8.50;;
4508;SDS011;2267;48.816;9.230;2023-08-17T04:46:13;10.43;;;9.43;;
4508;SDS011;2267;48.816;9.230;2023-08-17T04:48:40;10.00;;;9.10;;
4508;SDS011;2267;48.816;9.230;2023-08-17T04:51:07;10.47;;;9.47;;
4508;SDS011;2267;48.816;9.230;2023-08-17T04:53:34;12.10;;;10.93;;
4508;SDS011;2267;48.816;9.230;2023-08-17T04:56:02;11.30;;;10.30;;
4508;SDS011;2267;48.816;9.230;2023-08-17T04:58:29;12.33;;;10.23;;
4508;SDS011;2267;48.816;9.230;2023-08-17T05:00:56;10.53;;;9.63;;
4508;SDS011;2267;48.816;9.230;2023-08-17T05:03:23;10.00;;;9.07;;
4508;SDS011;2267;48.816;9.230;2023-08-17T05:05:57;10.53;;;7.40;;
4508;SDS011;2267;48.816;9.230;2023-08-17T05:08:23;10.40;;;7.53;;
4508;SDS011;2267;48.816;9.230;2023-08-17T05:10:50;11.03;;;7.83;;
4508;SDS011;2267;48.816;9.230;2023-08-17T05:13:17;8.93;;;8.00;;
4508;SDS011;2267;48.816;9.230;2023-08-17T05:15:45;8.90;;;7.60;;
4508;SDS011;2267;48.816;9.230;2023-08-17T05:18:12;13.00;;;9.03;;
4508;SDS011;2267;48.816;9.230;2023-08-17T05:20:39;9.47;;;8.27;;
4508;SDS011;2267;48.816;9.230;2023-08-17T05:23:05;9.03;;;8.00;;
4508;SDS011;2267;48.816;9.230;2023-08-17T05:25:32;9.13;;;8.07;;
4508;SDS011;2267;48.816;9.230;2023-08-17T05:27:59;10.80;;;8.30;;
4508;SDS011;2267;48.816;9.230;2023-08-17T05:30:26;11.10;;;8.60;;
4508;SDS011;2267;48.816;9.230;2023-08-17T05:32:53;10.37;;;7.87;;
4508;SDS011;2267;48.816;9.230;2023-08-17T05:35:20;12.23;;;9.13;;
4508;SDS011;2267;48.816;9.230;2023-08-17T05:37:47;9.33;;;8.47;;
4508;SDS011;2267;48.816;9.230;2023-08-17T05:40:14;9.90;;;9.10;;
4508;SDS011;2267;48.816;9.230;2023-08-17T05:42:41;12.30;;;8.70;;
4508;SDS011;2267;48.816;9.230;2023-08-17T05:45:08;10.43;;;8.63;;
4508;SDS011;2267;48.816;9.230;2023-08-17T05:47:35;11.70;;;10.33;;
4508;SDS011;2267;48.816;9.230;2023-08-17T05:50:02;12.37;;;11.27;;
4508;SDS011;2267;48.816;9.230;2023-08-17T05:52:29;12.63;;;9.03;;
4508;SDS011;2267;48.816;9.230;2023-08-17T05:54:57;9.67;;;8.77;;
4508;SDS011;2267;48.816;9.230;2023-08-17T05:57:24;8.60;;;7.80;;
4508;SDS011;2267;48.816;9.230;2023-08-17T05:59:51;9.77;;;8.50;;
4508;SDS011;2267;48.816;9.230;2023-08-17T06:02:18;7.27;;;6.57;;
4508;SDS011;2267;48.816;9.230;2023-08-17T06:04:44;6.60;;;6.00;;
4508;SDS011;2267;48.816;9.230;2023-08-17T06:07:14;8.60;;;6.50;;
4508;SDS011;2267;48.816;9.230;2023-08-17T06:09:41;11.23;;;7.30;;
4508;SDS011;2267;48.816;9.230;2023-08-17T06:12:08;8.53;;;7.57;;
4508;SDS011;2267;48.816;9.230;2023-08-17T06:14:35;9.03;;;8.13;;
4508;SDS011;2267;48.816;9.230;2023-08-17T06:17:02;11.47;;;9.00;;
4508;SDS011;2267;48.816;9.230;2023-08-17T06:19:28;9.17;;;8.30;;
4508;SDS011;2267;48.816;9.230;2023-08-17T06:21:55;9.87;;;8.23;;
4508;SDS011;2267;48.816;9.230;2023-08-17T06:24:22;9.47;;;7.30;;
4508;SDS011;2267;48.816;9.230;2023-08-17T06:26:49;18.50;;;9.60;;
4508;SDS011;2267;48.816;9.230;2023-08-17T06:29:16;8.30;;;7.50;;
4508;SDS011;2267;48.816;9.230;2023-08-17T06:31:42;10.17;;;9.20;;
4508;SDS011;2267;48.816;9.230;2023-08-17T06:34:09;9.93;;;8.93;;
4508;SDS011;2267;48.816;9.230;2023-08-17T06:36:37;10.40;;;9.50;;
4508;SDS011;2267;48.816;9.230;2023-08-17T06:39:05;9.37;;;8.57;;
4508;SDS011;2267;48.816;9.230;2023-08-17T06:41:32;7.70;;;7.00;;
4508;SDS011;2267;48.816;9.230;2023-08-17T06:43:59;9.47;;;8.60;;
4508;SDS011;2267;48.816;9.230;2023-08-17T06:46:26;12.43;;;11.30;;
4508;SDS011;2267;48.816;9.230;2023-08-17T06:48:54;11.03;;;9.93;;
4508;SDS011;2267;48.816;9.230;2023-08-17T06:51:21;16.23;;;12.93;;
4508;SDS011;2267;48.816;9.230;2023-08-17T06:53:47;12.13;;;10.97;;
4508;SDS011;2267;48.816;9.230;2023-08-17T06:56:15;15.40;;;12.43;;
4508;SDS011;2267;48.816;9.230;2023-08-17T06:58:41;12.37;;;11.27;;
4508;SDS011;2267;48.816;9.230;2023-08-17T07:01:08;11.50;;;10.40;;
4508;SDS011;2267;48.816;9.230;2023-08-17T07:03:35;13.60;;;12.13;;
4508;SDS011;2267;48.816;9.230;2023-08-17T07:06:02;12.70;;;11.60;;
4508;SDS011;2267;48.816;9.230;2023-08-17T07:08:30;12.57;;;11.43;;
4508;SDS011;2267;48.816;9.230;2023-08-17T07:10:57;10.70;;;9.70;;
4508;SDS011;2267;48.816;9.230;2023-08-17T07:13:23;13.13;;;11.73;;
4508;SDS011;2267;48.816;9.230;2023-08-17T07:15:50;12.07;;;11.07;;
4508;SDS011;2267;48.816;9.230;2023-08-17T07:18:17;12.50;;;11.40;;
4508;SDS011;2267;48.816;9.230;2023-08-17T07:20:44;11.80;;;10.70;;
4508;SDS011;2267;48.816;9.230;2023-08-17T07:23:11;11.10;;;10.00;;
4508;SDS011;2267;48.816;9.230;2023-08-17T07:25:37;11.37;;;10.40;;
4508;SDS011;2267;48.816;9.230;2023-08-17T07:28:04;13.37;;;12.17;;
4508;SDS011;2267;48.816;9.230;2023-08-17T07:30:32;12.70;;;11.50;;
4508;SDS011;2267;48.816;9.230;2023-08-17T07:32:58;14.80;;;12.07;;
4508;SDS011;2267;48.816;9.230;2023-08-17T07:35:25;12.60;;;11.50;;
4508;SDS011;2267;48.816;9.230;2023-08-17T07:37:52;13.33;;;10.93;;
4508;SDS011;2267;48.816;9.230;2023-08-17T07:40:34;10.10;;;9.10;;
4508;SDS011;2267;48.816;9.230;2023-08-17T07:43:01;11.70;;;10.60;;
4508;SDS011;2267;48.816;9.230;2023-08-17T07:45:28;10.30;;;9.47;;
4508;SDS011;2267;48.816;9.230;2023-08-17T07:47:54;10.27;;;9.33;;
4508;SDS011;2267;48.816;9.230;2023-08-17T07:50:21;9.63;;;8.73;;
4508;SDS011;2267;48.816;9.230;2023-08-17T07:52:48;11.27;;;10.10;;
4508;SDS011;2267;48.816;9.230;2023-08-17T07:55:15;10.70;;;9.70;;
4508;SDS011;2267;48.816;9.230;2023-08-17T07:57:42;13.40;;;12.17;;
4508;SDS011;2267;48.816;9.230;2023-08-17T08:00:09;14.10;;;12.70;;
4508;SDS011;2267;48.816;9.230;2023-08-17T08:02:36;12.87;;;11.53;;
4508;SDS011;2267;48.816;9.230;2023-08-17T08:05:03;13.30;;;12.10;;
4508;SDS011;2267;48.816;9.230;2023-08-17T08:07:30;10.13;;;9.17;;
4508;SDS011;2267;48.816;9.230;2023-08-17T08:09:57;12.80;;;11.60;;
4508;SDS011;2267;48.816;9.230;2023-08-17T08:12:24;11.53;;;10.43;;
4508;SDS011;2267;48.816;9.230;2023-08-17T08:14:51;11.27;;;10.30;;
4508;SDS011;2267;48.816;9.230;2023-08-17T08:17:18;14.27;;;10.60;;
4508;SDS011;2267;48.816;9.230;2023-08-17T08:19:45;12.40;;;11.20;;
4508;SDS011;2267;48.816;9.230;2023-08-17T08:22:12;13.10;;;12.03;;
4508;SDS011;2267;48.816;9.230;2023-08-17T08:24:39;10.80;;;9.93;;
4508;SDS011;2267;48.816;9.230;2023-08-17T08:27:10;11.13;;;10.20;;
4508;SDS011;2267;48.816;9.230;2023-08-17T08:29:36;13.85;;;10.75;;
4508;SDS011;2267;48.816;9.230;2023-08-17T08:32:03;12.57;;;10.70;;
4508;SDS011;2267;48.816;9.230;2023-08-17T08:34:30;11.70;;;10.50;;
4508;SDS011;2267;48.816;9.230;2023-08-17T08:36:57;9.80;;;9.10;;
4508;SDS011;2267;48.816;9.230;2023-08-17T08:39:27;10.03;;;9.03;;
4508;SDS011;2267;48.816;9.230;2023-08-17T08:41:53;10.70;;;9.80;;
4508;SDS011;2267;48.816;9.230;2023-08-17T08:44:20;10.73;;;9.73;;
4508;SDS011;2267;48.816;9.230;2023-08-17T08:46:48;11.00;;;10.10;;
4508;SDS011;2267;48.816;9.230;2023-08-17T08:49:17;11.73;;;10.53;;
4508;SDS011;2267;48.816;9.230;2023-08-17T08:51:48;9.87;;;8.97;;
4508;SDS011;2267;48.816;9.230;2023-08-17T08:54:25;10.87;;;9.77;;
4508;SDS011;2267;48.816;9.230;2023-08-17T08:56:58;10.10;;;9.20;;
4508;SDS011;2267;48.816;9.230;2023-08-17T08:59:28;12.37;;;11.37;;
4508;SDS011;2267;48.816;9.230;2023-08-17T09:01:55;12.13;;;9.50;;
4508;SDS011;2267;48.816;9.230;2023-08-17T09:04:24;9.97;;;9.17;;
4508;SDS011;2267;48.816;9.230;2023-08-17T09:06:52;10.57;;;9.57;;
4508;SDS011;2267;48.816;9.230;2023-08-17T09:09:21;8.23;;;7.53;;
4508;SDS011;2267;48.816;9.230;2023-08-17T09:11:55;10.40;;;9.60;;
4508;SDS011;2267;48.816;9.230;2023-08-17T09:14:22;9.23;;;8.43;;
4508;SDS011;2267;48.816;9.230;2023-08-17T09:16:49;7.80;;;7.20;;
4508;SDS011;2267;48.816;9.230;2023-08-17T09:19:16;10.50;;;8.20;;
4508;SDS011;2267;48.816;9.230;2023-08-17T09:21:44;10.40;;;9.40;;
4508;SDS011;2267;48.816;9.230;2023-08-17T09:24:16;10.30;;;9.50;;
4508;SDS011;2267;48.816;9.230;2023-08-17T09:26:43;9.43;;;8.60;;
4508;SDS011;2267;48.816;9.230;2023-08-17T09:29:16;10.70;;;9.60;;
4508;SDS011;2267;48.816;9.230;2023-08-17T09:31:45;12.00;;;10.87;;
4508;SDS011;2267;48.816;9.230;2023-08-17T09:34:15;10.70;;;9.80;;
4508;SDS011;2267;48.816;9.230;2023-08-17T09:36:47;9.57;;;8.77;;
4508;SDS011;2267;48.816;9.230;2023-08-17T09:39:17;11.63;;;10.73;;
4508;SDS011;2267;48.816;9.230;2023-08-17T09:41:46;9.90;;;9.03;;
4508;SDS011;2267;48.816;9.230;2023-08-17T09:44:13;12.90;;;11.70;;
4508;SDS011;2267;48.816;9.230;2023-08-17T09:46:43;10.30;;;9.40;;
4508;SDS011;2267;48.816;9.230;2023-08-17T09:49:10;9.30;;;8.40;;
4508;SDS011;2267;48.816;9.230;2023-08-17T09:51:37;11.30;;;10.30;;
4508;SDS011;2267;48.816;9.230;2023-08-17T09:54:09;9.80;;;8.80;;
4508;SDS011;2267;48.816;9.230;2023-08-17T09:56:50;8.53;;;7.83;;
4508;SDS011;2267;48.816;9.230;2023-08-17T09:59:18;11.67;;;9.80;;
4508;SDS011;2267;48.816;9.230;2023-08-17T10:01:47;10.27;;;9.27;;
4508;SDS011;2267;48.816;9.230;2023-08-17T10:04:22;10.30;;;9.47;;
4508;SDS011;2267;48.816;9.230;2023-08-17T10:06:56;12.37;;;11.13;;
4508;SDS011;2267;48.816;9.230;2023-08-17T10:09:28;9.13;;;8.33;;
4508;SDS011;2267;48.816;9.230;2023-08-17T10:12:06;10.03;;;9.33;;
4508;SDS011;2267;48.816;9.230;2023-08-17T10:14:39;10.23;;;9.27;;
4508;SDS011;2267;48.816;9.230;2023-08-17T10:17:13;9.93;;;9.13;;
4508;SDS011;2267;48.816;9.230;2023-08-17T10:20:03;12.30;;;11.20;;
4508;SDS011;2267;48.816;9.230;2023-08-17T10:22:33;11.90;;;10.60;;
4508;SDS011;2267;48.816;9.230;2023-08-17T10:28:04;10.43;;;9.50;;
4508;SDS011;2267;48.816;9.230;2023-08-17T10:30:32;9.87;;;9.00;;
4508;SDS011;2267;48.816;9.230;2023-08-17T10:32:59;10.17;;;9.23;;
4508;SDS011;2267;48.816;9.230;2023-08-17T10:35:27;10.10;;;9.10;;
4508;SDS011;2267;48.816;9.230;2023-08-17T10:37:54;11.03;;;9.93;;
4508;SDS011;2267;48.816;9.230;2023-08-17T10:40:25;10.00;;;9.00;;
4508;SDS011;2267;48.816;9.230;2023-08-17T10:43:01;10.13;;;9.27;;
4508;SDS011;2267;48.816;9.230;2023-08-17T10:45:28;10.33;;;9.43;;
4508;SDS011;2267;48.816;9.230;2023-08-17T10:50:37;12.33;;;11.13;;
4508;SDS011;2267;48.816;9.230;2023-08-17T10:53:10;10.20;;;9.37;;
4508;SDS011;2267;48.816;9.230;2023-08-17T10:55:42;11.47;;;10.47;;
4508;SDS011;2267;48.816;9.230;2023-08-17T10:58:11;10.73;;;9.60;;
4508;SDS011;2267;48.816;9.230;2023-08-17T11:00:41;9.50;;;8.80;;
4508;SDS011;2267;48.816;9.230;2023-08-17T11:03:19;10.50;;;9.50;;
4508;SDS011;2267;48.816;9.230;2023-08-17T11:05:55;13.30;;;9.40;;
4508;SDS011;2267;48.816;9.230;2023-08-17T11:08:23;10.20;;;9.30;;
4508;SDS011;2267;48.816;9.230;2023-08-17T11:13:27;9.00;;;8.10;;
4508;SDS011;2267;48.816;9.230;2023-08-17T11:15:55;11.27;;;10.13;;
4508;SDS011;2267;48.816;9.230;2023-08-17T11:18:29;10.37;;;9.47;;
4508;SDS011;2267;48.816;9.230;2023-08-17T11:20:56;9.80;;;8.90;;
4508;SDS011;2267;48.816;9.230;2023-08-17T11:23:24;12.23;;;10.00;;
4508;SDS011;2267;48.816;9.230;2023-08-17T11:25:54;9.60;;;8.90;;
4508;SDS011;2267;48.816;9.230;2023-08-17T11:28:21;9.50;;;8.67;;
4508;SDS011;2267;48.816;9.230;2023-08-17T11:31:05;8.97;;;8.17;;
4508;SDS011;2267;48.816;9.230;2023-08-17T11:33:34;8.83;;;8.13;;
4508;SDS011;2267;48.816;9.230;2023-08-17T11:36:04;9.30;;;8.50;;
4508;SDS011;2267;48.816;9.230;2023-08-17T11:38:35;9.40;;;8.70;;
4508;SDS011;2267;48.816;9.230;2023-08-17T11:41:04;8.60;;;7.90;;
4508;SDS011;2267;48.816;9.230;2023-08-17T11:43:34;9.43;;;8.63;;
4508;SDS011;2267;48.816;9.230;2023-08-17T11:46:01;9.07;;;8.23;;
4508;SDS011;2267;48.816;9.230;2023-08-17T11:48:28;8.50;;;7.87;;
4508;SDS011;2267;48.816;9.230;2023-08-17T11:51:02;9.50;;;8.70;;
4508;SDS011;2267;48.816;9.230;2023-08-17T11:53:34;9.50;;;8.70;;
4508;SDS011;2267;48.816;9.230;2023-08-17T11:56:07;9.07;;;8.27;;
4508;SDS011;2267;48.816;9.230;2023-08-17T11:58:39;8.70;;;7.90;;
4508;SDS011;2267;48.816;9.230;2023-08-17T12:01:08;8.83;;;8.13;;
4508;SDS011;2267;48.816;9.230;2023-08-17T12:03:36;9.23;;;8.30;;
4508;SDS011;2267;48.816;9.230;2023-08-17T12:06:05;8.63;;;7.93;;
4508;SDS011;2267;48.816;9.230;2023-08-17T12:08:33;8.90;;;8.00;;
4508;SDS011;2267;48.816;9.230;2023-08-17T12:11:00;7.85;;;7.20;;
4508;SDS011;2267;48.816;9.230;2023-08-17T12:13:32;8.53;;;7.87;;
4508;SDS011;2267;48.816;9.230;2023-08-17T12:16:00;10.20;;;9.50;;
4508;SDS011;2267;48.816;9.230;2023-08-17T12:18:27;9.57;;;8.67;;
4508;SDS011;2267;48.816;9.230;2023-08-17T12:20:54;9.15;;;7.75;;
4508;SDS011;2267;48.816;9.230;2023-08-17T12:23:22;10.03;;;9.23;;
4508;SDS011;2267;48.816;9.230;2023-08-17T12:25:52;10.37;;;9.47;;
4508;SDS011;2267;48.816;9.230;2023-08-17T12:28:22;9.93;;;9.13;;
4508;SDS011;2267;48.816;9.230;2023-08-17T12:30:57;10.33;;;9.43;;
4508;SDS011;2267;48.816;9.230;2023-08-17T12:33:28;8.87;;;8.17;;
4508;SDS011;2267;48.816;9.230;2023-08-17T12:35:55;9.60;;;8.90;;
4508;SDS011;2267;48.816;9.230;2023-08-17T12:38:25;8.33;;;7.73;;
4508;SDS011;2267;48.816;9.230;2023-08-17T12:40:52;10.17;;;9.37;;
4508;SDS011;2267;48.816;9.230;2023-08-17T12:43:19;10.50;;;9.50;;
4508;SDS011;2267;48.816;9.230;2023-08-17T12:45:46;9.43;;;8.63;;
4508;SDS011;2267;48.816;9.230;2023-08-17T12:48:13;9.90;;;8.90;;
4508;SDS011;2267;48.816;9.230;2023-08-17T12:50:40;10.30;;;9.40;;
4508;SDS011;2267;48.816;9.230;2023-08-17T12:53:09;9.27;;;8.37;;
4508;SDS011;2267;48.816;9.230;2023-08-17T12:55:37;10.13;;;8.03;;
4508;SDS011;2267;48.816;9.230;2023-08-17T12:58:04;8.47;;;7.67;;
4508;SDS011;2267;48.816;9.230;2023-08-17T13:00:33;7.73;;;7.13;;
4508;SDS011;2267;48.816;9.230;2023-08-17T13:03:00;7.33;;;6.70;;
4508;SDS011;2267;48.816;9.230;2023-08-17T13:05:27;8.10;;;7.40;;
4508;SDS011;2267;48.816;9.230;2023-08-17T13:07:54;7.67;;;6.67;;
4508;SDS011;2267;48.816;9.230;2023-08-17T13:10:21;7.63;;;7.00;;
4508;SDS011;2267;48.816;9.230;2023-08-17T13:12:48;7.27;;;6.47;;
4508;SDS011;2267;48.816;9.230;2023-08-17T13:15:15;8.03;;;7.23;;
4508;SDS011;2267;48.816;9.230;2023-08-17T13:17:42;8.93;;;5.80;;
4508;SDS011;2267;48.816;9.230;2023-08-17T13:20:09;7.07;;;6.37;;
4508;SDS011;2267;48.816;9.230;2023-08-17T13:22:36;10.87;;;6.87;;
4508;SDS011;2267;48.816;9.230;2023-08-17T13:25:03;8.10;;;6.70;;
4508;SDS011;2267;48.816;9.230;2023-08-17T13:27:31;8.23;;;6.90;;
4508;SDS011;2267;48.816;9.230;2023-08-17T13:29:58;7.70;;;6.23;;
4508;SDS011;2267;48.816;9.230;2023-08-17T13:32:25;6.20;;;5.70;;
4508;SDS011;2267;48.816;9.230;2023-08-17T13:34:53;7.33;;;6.63;;
4508;SDS011;2267;48.816;9.230;2023-08-17T13:37:20;7.43;;;6.83;;
4508;SDS011;2267;48.816;9.230;2023-08-17T13:39:47;7.83;;;7.10;;
4508;SDS011;2267;48.816;9.230;2023-08-17T13:42:14;7.40;;;6.80;;
4508;SDS011;2267;48.816;9.230;2023-08-17T13:44:40;8.50;;;6.47;;
4508;SDS011;2267;48.816;9.230;2023-08-17T13:47:07;8.83;;;7.50;;
4508;SDS011;2267;48.816;9.230;2023-08-17T13:49:34;7.37;;;6.77;;
4508;SDS011;2267;48.816;9.230;2023-08-17T13:52:01;7.90;;;7.10;;
4508;SDS011;2267;48.816;9.230;2023-08-17T13:54:28;7.63;;;7.03;;
4508;SDS011;2267;48.816;9.230;2023-08-17T13:56:55;8.33;;;7.53;;
4508;SDS011;2267;48.816;9.230;2023-08-17T13:59:21;8.43;;;7.53;;
4508;SDS011;2267;48.816;9.230;2023-08-17T14:01:48;8.73;;;7.93;;
4508;SDS011;2267;48.816;9.230;2023-08-17T14:04:15;8.07;;;7.37;;
4508;SDS011;2267;48.816;9.230;2023-08-17T14:06:43;8.67;;;7.87;;
4508;SDS011;2267;48.816;9.230;2023-08-17T14:09:10;8.17;;;7.10;;
4508;SDS011;2267;48.816;9.230;2023-08-17T14:11:37;9.43;;;8.50;;
4508;SDS011;2267;48.816;9.230;2023-08-17T14:14:04;8.70;;;8.00;;
4508;SDS011;2267;48.816;9.230;2023-08-17T14:16:33;9.27;;;8.57;;
4508;SDS011;2267;48.816;9.230;2023-08-17T14:19:00;10.73;;;8.17;;
4508;SDS011;2267;48.816;9.230;2023-08-17T14:21:27;8.80;;;8.20;;
4508;SDS011;2267;48.816;9.230;2023-08-17T14:23:54;9.30;;;8.60;;
4508;SDS011;2267;48.816;9.230;2023-08-17T14:26:20;10.37;;;9.37;;
4508;SDS011;2267;48.816;9.230;2023-08-17T14:28:47;13.20;;;9.57;;
4508;SDS011;2267;48.816;9.230;2023-08-17T14:31:14;11.07;;;8.67;;
4508;SDS011;2267;48.816;9.230;2023-08-17T14:33:44;10.30;;;9.20;;
4508;SDS011;2267;48.816;9.230;2023-08-17T14:36:14;9.00;;;8.30;;
4508;SDS011;2267;48.816;9.230;2023-08-17T14:38:44;9.57;;;8.60;;
4508;SDS011;2267;48.816;9.230;2023-08-17T14:41:11;9.37;;;8.50;;
4508;SDS011;2267;48.816;9.230;2023-08-17T14:43:38;9.47;;;8.70;;
4508;SDS011;2267;48.816;9.230;2023-08-17T14:46:05;9.20;;;8.30;;
4508;SDS011;2267;48.816;9.230;2023-08-17T14:48:40;9.00;;;8.10;;
4508;SDS011;2267;48.816;9.230;2023-08-17T14:51:07;9.83;;;8.57;;
4508;SDS011;2267;48.816;9.230;2023-08-17T14:53:34;9.43;;;8.63;;
4508;SDS011;2267;48.816;9.230;2023-08-17T14:56:04;9.17;;;8.40;;
4508;SDS011;2267;48.816;9.230;2023-08-17T14:58:31;8.83;;;8.13;;
4508;SDS011;2267;48.816;9.230;2023-08-17T15:00:58;9.57;;;8.77;;
4508;SDS011;2267;48.816;9.230;2023-08-17T15:03:25;8.70;;;7.90;;
4508;SDS011;2267;48.816;9.230;2023-08-17T15:05:52;9.10;;;8.30;;
4508;SDS011;2267;48.816;9.230;2023-08-17T15:08:19;9.17;;;8.27;;
4508;SDS011;2267;48.816;9.230;2023-08-17T15:10:46;9.57;;;8.73;;
4508;SDS011;2267;48.816;9.230;2023-08-17T15:13:16;8.47;;;7.67;;
4508;SDS011;2267;48.816;9.230;2023-08-17T15:15:44;9.50;;;8.47;;
4508;SDS011;2267;48.816;9.230;2023-08-17T15:18:11;8.93;;;8.07;;
4508;SDS011;2267;48.816;9.230;2023-08-17T15:20:38;7.83;;;7.23;;
4508;SDS011;2267;48.816;9.230;2023-08-17T15:23:05;9.30;;;8.37;;
4508;SDS011;2267;48.816;9.230;2023-08-17T15:25:32;8.90;;;8.20;;
4508;SDS011;2267;48.816;9.230;2023-08-17T15:27:58;8.23;;;7.53;;